createdAt,value
2022-09-21T00:01:14.203Z,8.20
2022-09-21T00:03:42.177Z,8.20
2022-09-21T00:06:15.611Z,8.10
2022-09-21T00:08:42.953Z,8.10
2022-09-21T00:11:25.099Z,8.10
2022-09-21T00:13:59.816Z,8.10
2022-09-21T00:16:26.890Z,8.00
2022-09-21T00:18:53.997Z,8.00
2022-09-21T00:21:21.362Z,8.00
2022-09-21T00:23:48.342Z,8.00
2022-09-21T00:26:18.456Z,8.00
2022-09-21T00:28:45.600Z,8.00
2022-09-21T00:31:15.726Z,7.90
2022-09-21T00:33:43.745Z,7.90
2022-09-21T00:36:17.073Z,7.80
2022-09-21T00:38:44.659Z,7.80
2022-09-21T00:41:12.464Z,7.80
2022-09-21T00:44:06.134Z,7.80
2022-09-21T00:46:32.971Z,7.80
2022-09-21T00:48:59.687Z,7.70
2022-09-21T00:51:26.453Z,7.70
2022-09-21T00:53:58.718Z,7.70
2022-09-21T00:56:26.245Z,7.70
2022-09-21T00:58:54.941Z,7.60
2022-09-21T01:01:22.311Z,7.60
2022-09-21T01:03:51.322Z,7.60
2022-09-21T01:06:20.669Z,7.60
2022-09-21T01:08:52.765Z,7.60
2022-09-21T01:11:38.505Z,7.50
2022-09-21T01:14:32.410Z,7.50
2022-09-21T01:17:24.056Z,7.50
2022-09-21T01:20:05.893Z,7.50
2022-09-21T01:22:38.819Z,7.40
2022-09-21T01:25:36.647Z,7.40
2022-09-21T01:28:12.677Z,7.30
2022-09-21T01:30:45.740Z,7.30
2022-09-21T01:33:23.944Z,7.30
2022-09-21T01:35:57.943Z,7.30
2022-09-21T01:38:32.601Z,7.30
2022-09-21T01:41:03.997Z,7.30
2022-09-21T01:43:36.508Z,7.30
2022-09-21T01:46:07.245Z,7.20
2022-09-21T01:48:38.361Z,7.30
2022-09-21T01:51:10.008Z,7.20
2022-09-21T01:53:47.583Z,7.20
2022-09-21T01:56:27.387Z,7.20
2022-09-21T01:59:15.820Z,7.20
2022-09-21T02:01:53.159Z,7.10
2022-09-21T02:04:20.105Z,7.10
2022-09-21T02:06:49.254Z,7.10
2022-09-21T02:09:17.186Z,7.00
2022-09-21T02:11:44.774Z,7.00
2022-09-21T02:14:14.577Z,7.00
2022-09-21T02:17:15.598Z,7.00
2022-09-21T02:19:50.190Z,7.00
2022-09-21T02:22:29.933Z,6.90
2022-09-21T02:25:07.436Z,6.90
2022-09-21T02:27:55.871Z,6.90
2022-09-21T02:30:25.319Z,6.90
2022-09-21T02:33:04.707Z,6.90
2022-09-21T02:35:59.544Z,6.80
2022-09-21T02:38:46.186Z,6.80
2022-09-21T02:41:31.367Z,6.80
2022-09-21T02:44:24.905Z,6.70
2022-09-21T02:46:55.005Z,6.70
2022-09-21T02:49:31.487Z,6.70
2022-09-21T02:52:01.326Z,6.70
2022-09-21T02:54:32.598Z,6.70
2022-09-21T02:57:00.487Z,6.70
2022-09-21T02:59:28.299Z,6.60
2022-09-21T03:01:58.332Z,6.60
2022-09-21T03:04:25.646Z,6.60
2022-09-21T03:06:52.476Z,6.60
2022-09-21T03:09:21.183Z,6.50
2022-09-21T03:11:48.003Z,6.50
2022-09-21T03:14:14.686Z,6.50
2022-09-21T03:16:41.336Z,6.50
2022-09-21T03:19:08.962Z,6.50
2022-09-21T03:21:35.680Z,6.40
2022-09-21T03:24:02.507Z,6.40
2022-09-21T03:26:29.702Z,6.40
2022-09-21T03:28:56.378Z,6.40
2022-09-21T03:31:23.066Z,6.40
2022-09-21T03:33:50.006Z,6.30
2022-09-21T03:36:17.022Z,6.30
2022-09-21T03:38:44.288Z,6.30
2022-09-21T03:41:11.037Z,6.30
2022-09-21T03:43:37.775Z,6.30
2022-09-21T03:46:04.635Z,6.30
2022-09-21T03:48:32.694Z,6.30
2022-09-21T03:50:59.515Z,6.30
2022-09-21T03:53:26.417Z,6.20
2022-09-21T03:55:53.124Z,6.20
2022-09-21T03:58:20.016Z,6.20
2022-09-21T04:00:46.805Z,6.20
2022-09-21T04:03:13.531Z,6.20
2022-09-21T04:05:40.291Z,6.20
2022-09-21T04:08:07.310Z,6.20
2022-09-21T04:10:34.106Z,6.10
2022-09-21T04:13:01.625Z,6.20
2022-09-21T04:15:29.564Z,6.10
2022-09-21T04:17:57.233Z,6.10
2022-09-21T04:20:24.547Z,6.10
2022-09-21T04:22:52.600Z,6.10
2022-09-21T04:25:19.418Z,6.00
2022-09-21T04:27:46.503Z,6.00
2022-09-21T04:30:15.254Z,6.00
2022-09-21T04:32:42.298Z,6.00
2022-09-21T04:35:09.443Z,6.00
2022-09-21T04:37:36.167Z,5.90
2022-09-21T04:40:03.928Z,5.90
2022-09-21T04:42:30.663Z,5.90
2022-09-21T04:44:57.415Z,5.90
2022-09-21T04:47:25.161Z,5.90
2022-09-21T04:49:52.780Z,5.90
2022-09-21T04:52:19.596Z,5.90
2022-09-21T04:54:47.114Z,5.90
2022-09-21T04:57:15.214Z,5.80
2022-09-21T04:59:41.875Z,5.80
2022-09-21T05:02:08.823Z,5.80
2022-09-21T05:04:35.544Z,5.80
2022-09-21T05:07:02.284Z,5.80
2022-09-21T05:09:47.429Z,5.80
2022-09-21T05:12:14.091Z,5.70
2022-09-21T05:14:41.199Z,5.70
2022-09-21T05:17:08.139Z,5.70
2022-09-21T05:19:34.932Z,5.70
2022-09-21T05:22:01.686Z,5.70
2022-09-21T05:24:28.357Z,5.70
2022-09-21T05:26:55.069Z,5.70
2022-09-21T05:29:22.006Z,5.70
2022-09-21T05:32:06.318Z,5.70
2022-09-21T05:34:57.264Z,5.70
2022-09-21T05:37:47.054Z,5.70
2022-09-21T05:40:14.543Z,5.70
2022-09-21T05:42:41.465Z,5.70
2022-09-21T05:45:12.686Z,5.70
2022-09-21T05:47:49.807Z,5.80
2022-09-21T05:50:37.355Z,5.80
2022-09-21T05:53:19.687Z,5.80
2022-09-21T05:56:19.811Z,5.80
2022-09-21T05:58:59.456Z,5.80
2022-09-21T06:01:51.733Z,5.90
2022-09-21T06:04:18.549Z,5.90
2022-09-21T06:06:45.206Z,5.90
2022-09-21T06:09:11.848Z,6.00
2022-09-21T06:11:38.683Z,6.00
2022-09-21T06:14:05.439Z,6.10
2022-09-21T06:16:39.878Z,6.10
2022-09-21T06:19:06.814Z,6.20
2022-09-21T06:21:33.510Z,6.20
2022-09-21T06:24:00.290Z,6.30
2022-09-21T06:26:27.699Z,6.30
2022-09-21T06:28:55.049Z,6.40
2022-09-21T06:31:21.958Z,6.40
2022-09-21T06:33:48.623Z,6.40
2022-09-21T06:36:17.542Z,6.50
2022-09-21T06:38:44.209Z,6.50
2022-09-21T06:41:10.856Z,6.60
2022-09-21T06:43:38.623Z,6.60
2022-09-21T06:46:05.599Z,6.70
2022-09-21T06:48:33.965Z,6.70
2022-09-21T06:51:02.694Z,6.70
2022-09-21T06:53:30.579Z,6.80
2022-09-21T06:56:06.164Z,6.80
2022-09-21T06:58:35.890Z,6.90
2022-09-21T07:01:11.750Z,6.90
2022-09-21T07:03:39.555Z,7.00
2022-09-21T07:06:07.223Z,7.00
2022-09-21T07:11:23.677Z,7.20
2022-09-21T07:13:50.658Z,7.20
2022-09-21T07:16:17.363Z,7.30
2022-09-21T07:18:44.389Z,7.40
2022-09-21T07:21:12.013Z,7.40
2022-09-21T07:23:38.941Z,7.40
2022-09-21T07:26:08.615Z,7.50
2022-09-21T07:28:36.081Z,7.50
2022-09-21T07:31:20.959Z,7.60
2022-09-21T07:33:47.640Z,7.70
2022-09-21T07:36:14.511Z,7.80
2022-09-21T07:38:43.015Z,7.90
2022-09-21T07:41:12.200Z,8.00
2022-09-21T07:43:41.848Z,8.10
2022-09-21T07:46:11.618Z,8.20
2022-09-21T07:48:38.287Z,8.30
2022-09-21T07:51:07.968Z,8.30
2022-09-21T07:53:35.703Z,8.40
2022-09-21T07:56:10.445Z,8.50
2022-09-21T07:58:56.343Z,8.60
2022-09-21T08:01:23.902Z,8.60
2022-09-21T08:03:55.294Z,8.70
2022-09-21T08:06:23.244Z,8.70
2022-09-21T08:08:53.822Z,8.80
2022-09-21T08:11:25.855Z,8.80
2022-09-21T08:13:53.877Z,8.90
2022-09-21T08:16:20.672Z,8.90
2022-09-21T08:18:47.628Z,9.00
2022-09-21T08:21:14.699Z,9.00
2022-09-21T08:23:42.567Z,9.10
2022-09-21T08:26:16.391Z,9.10
2022-09-21T08:28:43.720Z,9.20
2022-09-21T08:31:10.609Z,9.20
2022-09-21T08:33:37.388Z,9.30
2022-09-21T08:36:04.350Z,9.30
2022-09-21T08:38:35.848Z,9.40
2022-09-21T08:41:14.063Z,9.40
2022-09-21T08:43:44.144Z,9.60
2022-09-21T08:46:15.632Z,9.70
2022-09-21T08:48:50.305Z,9.70
2022-09-21T08:51:26.776Z,9.80
2022-09-21T08:53:58.306Z,9.90
2022-09-21T08:56:41.560Z,9.90
2022-09-21T08:59:15.673Z,10.00
2022-09-21T09:02:01.232Z,10.00
2022-09-21T09:04:44.587Z,10.00
2022-09-21T09:07:53.169Z,10.00
2022-09-21T09:10:41.525Z,10.10
2022-09-21T09:13:38.094Z,10.10
2022-09-21T09:16:16.752Z,10.10
2022-09-21T09:18:52.884Z,10.20
2022-09-21T09:21:40.636Z,10.20
2022-09-21T09:24:33.575Z,10.30
2022-09-21T09:27:15.101Z,10.40
2022-09-21T09:29:57.312Z,10.40
2022-09-21T09:32:41.628Z,10.50
2022-09-21T09:35:31.159Z,10.60
2022-09-21T09:38:04.937Z,10.60
2022-09-21T09:40:51.899Z,10.70
2022-09-21T09:43:46.471Z,10.70
2022-09-21T09:46:45.020Z,10.70
2022-09-21T09:49:33.770Z,10.80
2022-09-21T09:52:01.025Z,10.80
2022-09-21T09:54:29.881Z,10.80
2022-09-21T09:56:56.694Z,10.90
2022-09-21T09:59:30.515Z,11.00
2022-09-21T10:02:07.212Z,11.00
2022-09-21T10:04:36.894Z,11.10
2022-09-21T10:07:03.539Z,11.10
2022-09-21T10:09:32.811Z,11.20
2022-09-21T10:12:19.905Z,11.20
2022-09-21T10:14:52.650Z,11.30
2022-09-21T10:17:20.235Z,11.30
2022-09-21T10:19:47.028Z,11.30
2022-09-21T10:22:19.202Z,11.30
2022-09-21T10:24:51.246Z,11.40
2022-09-21T10:27:26.168Z,11.40
2022-09-21T10:29:52.966Z,11.40
2022-09-21T10:32:21.443Z,11.40
2022-09-21T10:35:00.413Z,11.50
2022-09-21T10:37:29.503Z,11.60
2022-09-21T10:39:57.102Z,11.70
2022-09-21T10:42:23.963Z,11.70
2022-09-21T10:44:53.778Z,11.80
2022-09-21T10:47:22.558Z,11.80
2022-09-21T10:49:58.366Z,11.80
2022-09-21T10:52:39.362Z,11.90
2022-09-21T10:55:08.361Z,11.90
2022-09-21T10:57:35.182Z,12.00
2022-09-21T11:00:23.773Z,12.00
2022-09-21T11:02:51.045Z,12.10
2022-09-21T11:05:31.436Z,12.20
2022-09-21T11:08:01.158Z,12.20
2022-09-21T11:10:45.401Z,12.30
2022-09-21T11:13:36.717Z,12.30
2022-09-21T11:16:38.603Z,12.30
2022-09-21T11:19:14.658Z,12.40
2022-09-21T11:22:02.228Z,12.50
2022-09-21T11:24:53.633Z,12.60
2022-09-21T11:27:41.111Z,12.60
2022-09-21T11:30:16.368Z,12.70
2022-09-21T11:33:15.491Z,12.80
2022-09-21T11:36:26.408Z,12.70
2022-09-21T11:39:11.159Z,12.70
2022-09-21T11:42:16.448Z,12.60
2022-09-21T11:44:55.961Z,12.60
2022-09-21T11:47:31.686Z,12.60
2022-09-21T11:50:32.911Z,12.60
2022-09-21T11:53:05.535Z,12.70
2022-09-21T11:55:54.118Z,12.70
2022-09-21T11:58:53.019Z,12.80
2022-09-21T12:01:45.373Z,12.90
2022-09-21T12:04:32.402Z,13.00
2022-09-21T12:07:32.302Z,13.00
2022-09-21T12:10:23.669Z,13.10
2022-09-21T12:13:02.259Z,13.20
2022-09-21T12:15:36.931Z,13.20
2022-09-21T12:18:14.901Z,13.30
2022-09-21T12:20:50.463Z,13.30
2022-09-21T12:23:25.970Z,13.40
2022-09-21T12:25:57.630Z,13.40
2022-09-21T12:28:26.109Z,13.50
2022-09-21T12:31:00.906Z,13.50
2022-09-21T12:33:58.019Z,13.60
2022-09-21T12:36:29.906Z,13.60
2022-09-21T12:39:23.172Z,13.70
2022-09-21T12:42:07.603Z,13.80
2022-09-21T12:44:53.834Z,13.90
2022-09-21T12:47:32.581Z,14.00
2022-09-21T12:50:07.933Z,14.00
2022-09-21T12:52:37.454Z,14.10
2022-09-21T12:56:01.516Z,14.10
2022-09-21T12:58:55.206Z,14.20
2022-09-21T13:01:42.903Z,14.20
2022-09-21T13:04:38.079Z,14.30
2022-09-21T13:07:30.054Z,14.30
2022-09-21T13:09:57.927Z,14.40
2022-09-21T13:12:34.557Z,14.40
2022-09-21T13:15:24.192Z,14.40
2022-09-21T13:18:06.133Z,14.50
2022-09-21T13:20:39.362Z,14.50
2022-09-21T13:23:06.656Z,14.60
2022-09-21T13:25:37.807Z,14.60
2022-09-21T13:28:09.925Z,14.60
2022-09-21T13:30:41.481Z,14.60
2022-09-21T13:33:20.377Z,14.70
2022-09-21T13:36:02.317Z,14.80
2022-09-21T13:38:32.156Z,14.90
2022-09-21T13:41:21.141Z,14.90
2022-09-21T13:43:58.671Z,14.90
2022-09-21T13:46:37.204Z,14.90
2022-09-21T13:49:10.393Z,14.80
2022-09-21T13:51:52.357Z,14.70
2022-09-21T13:54:22.583Z,14.60
2022-09-21T13:57:08.563Z,14.60
2022-09-21T13:59:38.786Z,14.60
2022-09-21T14:02:22.737Z,14.70
2022-09-21T14:04:51.287Z,14.80
2022-09-21T14:07:18.824Z,15.00
2022-09-21T14:09:58.762Z,15.00
2022-09-21T14:12:27.553Z,15.10
2022-09-21T14:15:20.784Z,15.20
2022-09-21T14:18:16.245Z,15.30
2022-09-21T14:21:08.108Z,15.40
2022-09-21T14:23:37.255Z,15.50
2022-09-21T14:26:41.291Z,15.50
2022-09-21T14:29:22.652Z,15.60
2022-09-21T14:31:54.633Z,15.60
2022-09-21T14:34:27.287Z,15.70
2022-09-21T14:36:59.722Z,15.70
2022-09-21T14:39:38.498Z,15.70
2022-09-21T14:42:17.309Z,15.90
2022-09-21T14:44:44.699Z,15.90
2022-09-21T14:47:41.206Z,16.00
2022-09-21T14:50:21.624Z,16.20
2022-09-21T14:53:08.021Z,16.10
2022-09-21T14:55:52.419Z,15.90
2022-09-21T14:58:53.292Z,15.80
2022-09-21T15:01:35.278Z,15.70
2022-09-21T15:04:17.471Z,15.60
2022-09-21T15:07:18.019Z,15.50
2022-09-21T15:10:32.606Z,15.50
2022-09-21T15:13:04.979Z,15.50
2022-09-21T15:16:22.827Z,15.50
2022-09-21T15:18:59.968Z,15.50
2022-09-21T15:21:29.276Z,15.40
2022-09-21T15:23:56.510Z,15.40
2022-09-21T15:26:32.082Z,15.20
2022-09-21T15:29:09.643Z,15.20
2022-09-21T15:31:39.272Z,15.20
2022-09-21T15:34:07.797Z,15.40
2022-09-21T15:36:39.252Z,15.60
2022-09-21T15:39:06.622Z,15.70
2022-09-21T15:41:44.855Z,16.00
2022-09-21T15:44:26.377Z,16.10
2022-09-21T15:46:57.865Z,16.20
2022-09-21T15:49:24.896Z,16.30
2022-09-21T15:51:54.904Z,16.40
2022-09-21T15:54:43.051Z,16.40
2022-09-21T15:57:45.363Z,16.30
2022-09-21T16:00:15.256Z,16.00
2022-09-21T16:02:50.696Z,15.70
2022-09-21T16:05:22.623Z,15.50
2022-09-21T16:07:49.602Z,15.30
2022-09-21T16:10:31.187Z,15.10
2022-09-21T16:13:38.006Z,15.00
2022-09-21T16:16:07.674Z,15.00
2022-09-21T16:18:49.609Z,15.00
2022-09-21T16:21:20.421Z,15.00
2022-09-21T16:23:49.132Z,15.10
2022-09-21T16:26:24.848Z,15.10
2022-09-21T16:29:20.081Z,15.20
2022-09-21T16:31:50.148Z,15.20
2022-09-21T16:34:33.183Z,15.20
2022-09-21T16:37:02.646Z,15.20
2022-09-21T16:39:29.356Z,15.10
2022-09-21T16:42:00.869Z,15.10
2022-09-21T16:44:36.701Z,15.00
2022-09-21T16:47:04.297Z,15.00
2022-09-21T16:49:35.564Z,14.90
2022-09-21T16:52:02.874Z,14.90
2022-09-21T16:54:29.759Z,14.90
2022-09-21T16:57:00.003Z,14.90
2022-09-21T16:59:27.487Z,14.80
2022-09-21T17:01:57.022Z,14.80
2022-09-21T17:04:29.148Z,14.70
2022-09-21T17:06:56.762Z,14.60
2022-09-21T17:09:28.986Z,14.50
2022-09-21T17:11:59.273Z,14.40
2022-09-21T17:14:26.231Z,14.30
2022-09-21T17:16:56.204Z,14.20
2022-09-21T17:19:22.907Z,14.10
2022-09-21T17:21:49.988Z,14.00
2022-09-21T17:24:39.011Z,13.90
2022-09-21T17:27:03.879Z,13.80
2022-09-21T17:29:31.163Z,13.70
2022-09-21T17:31:58.703Z,13.60
2022-09-21T17:34:28.091Z,13.50
2022-09-21T17:36:55.734Z,13.40
2022-09-21T17:39:23.984Z,13.30
2022-09-21T17:41:58.882Z,13.20
2022-09-21T17:44:54.137Z,13.10
2022-09-21T17:47:25.596Z,13.10
2022-09-21T17:49:52.506Z,12.90
2022-09-21T17:52:40.559Z,12.80
2022-09-21T17:55:11.305Z,12.80
2022-09-21T17:57:47.551Z,12.70
2022-09-21T18:00:23.452Z,12.60
2022-09-21T18:02:51.012Z,12.60
2022-09-21T18:05:29.546Z,12.50
2022-09-21T18:07:56.831Z,12.50
2022-09-21T18:10:26.165Z,12.40
2022-09-21T18:13:02.169Z,12.30
2022-09-21T18:15:39.134Z,12.30
2022-09-21T18:18:31.796Z,12.20
2022-09-21T18:21:04.965Z,12.10
2022-09-21T18:24:09.454Z,12.00
2022-09-21T18:26:38.126Z,11.90
2022-09-21T18:29:28.525Z,11.80
2022-09-21T18:32:28.734Z,11.80
2022-09-21T18:35:08.591Z,11.70
2022-09-21T18:38:00.029Z,11.70
2022-09-21T18:41:00.809Z,11.60
2022-09-21T18:44:00.576Z,11.50
2022-09-21T18:46:48.731Z,11.40
2022-09-21T18:49:41.759Z,11.40
2022-09-21T18:52:38.882Z,11.30
2022-09-21T18:55:17.953Z,11.20
2022-09-21T18:57:45.363Z,11.20
2022-09-21T19:00:13.305Z,11.10
2022-09-21T19:02:58.742Z,11.00
2022-09-21T19:05:28.060Z,11.00
2022-09-21T19:08:37.563Z,10.90
2022-09-21T19:11:13.296Z,10.80
2022-09-21T19:14:15.175Z,10.80
2022-09-21T19:17:00.311Z,10.80
2022-09-21T19:19:39.895Z,10.70
2022-09-21T19:22:37.257Z,10.70
2022-09-21T19:25:21.014Z,10.60
2022-09-21T19:27:57.203Z,10.60
2022-09-21T19:30:24.678Z,10.50
2022-09-21T19:32:53.854Z,10.50
2022-09-21T19:35:25.694Z,10.50
2022-09-21T19:37:55.583Z,10.40
2022-09-21T19:40:37.154Z,10.40
2022-09-21T19:43:32.681Z,10.40
2022-09-21T19:46:33.513Z,10.30
2022-09-21T19:49:14.224Z,10.20
2022-09-21T19:51:48.563Z,10.20
2022-09-21T19:54:37.216Z,10.10
2022-09-21T19:57:34.276Z,10.10
2022-09-21T20:00:02.282Z,10.00
2022-09-21T20:02:38.905Z,10.00
2022-09-21T20:05:08.827Z,9.90
2022-09-21T20:08:18.163Z,9.90
2022-09-21T20:11:19.569Z,9.80
2022-09-21T20:14:14.379Z,9.80
2022-09-21T20:16:48.875Z,9.80
2022-09-21T20:19:37.537Z,9.70
2022-09-21T20:22:16.026Z,9.70
2022-09-21T20:24:54.795Z,9.60
2022-09-21T20:27:34.715Z,9.60
2022-09-21T20:30:07.133Z,9.60
2022-09-21T20:32:35.348Z,9.60
2022-09-21T20:35:02.689Z,9.50
2022-09-21T20:37:30.123Z,9.50
2022-09-21T20:39:56.936Z,9.40
2022-09-21T20:42:24.967Z,9.40
2022-09-21T20:44:52.406Z,9.40
2022-09-21T20:47:23.645Z,9.30
2022-09-21T20:49:50.442Z,9.30
2022-09-21T20:52:17.582Z,9.30
2022-09-21T20:54:48.947Z,9.30
2022-09-21T20:57:17.266Z,9.30
2022-09-21T20:59:44.620Z,9.20
2022-09-21T21:02:13.363Z,9.20
2022-09-21T21:04:40.823Z,9.10
2022-09-21T21:07:07.845Z,9.10
2022-09-21T21:09:34.815Z,9.10
2022-09-21T21:12:01.974Z,9.10
2022-09-21T21:14:29.904Z,9.00
2022-09-21T21:16:56.702Z,9.00
2022-09-21T21:19:23.433Z,9.00
2022-09-21T21:21:50.133Z,8.90
2022-09-21T21:24:35.424Z,8.90
2022-09-21T21:27:03.298Z,8.90
2022-09-21T21:29:30.984Z,8.80
2022-09-21T21:31:59.083Z,8.80
2022-09-21T21:34:26.436Z,8.70
2022-09-21T21:36:53.518Z,8.70
2022-09-21T21:39:20.290Z,8.70
2022-09-21T21:41:47.429Z,8.70
2022-09-21T21:44:15.106Z,8.60
2022-09-21T21:46:42.202Z,8.60
2022-09-21T21:49:09.141Z,8.60
2022-09-21T21:51:36.077Z,8.60
2022-09-21T21:54:02.820Z,8.50
2022-09-21T21:56:29.721Z,8.50
2022-09-21T21:58:57.015Z,8.50
2022-09-21T22:01:26.663Z,8.40
2022-09-21T22:03:55.696Z,8.40
2022-09-21T22:06:23.211Z,8.40
2022-09-21T22:08:51.002Z,8.40
2022-09-21T22:11:18.527Z,8.40
2022-09-21T22:13:45.917Z,8.40
2022-09-21T22:16:16.410Z,8.30
2022-09-21T22:18:43.774Z,8.30
2022-09-21T22:21:11.695Z,8.30
2022-09-21T22:23:38.588Z,8.20
2022-09-21T22:26:12.603Z,8.30
2022-09-21T22:28:41.213Z,8.20
2022-09-21T22:31:14.014Z,8.20
2022-09-21T22:33:41.353Z,8.20
2022-09-21T22:36:11.263Z,8.10
2022-09-21T22:38:42.760Z,8.10
2022-09-21T22:41:17.017Z,8.00
2022-09-21T22:43:45.077Z,8.00
2022-09-21T22:46:12.665Z,8.00
2022-09-21T22:48:39.614Z,7.90
2022-09-21T22:51:06.408Z,7.90
2022-09-21T22:53:33.195Z,7.90
2022-09-21T22:56:08.936Z,7.90
2022-09-21T22:58:39.024Z,7.90
2022-09-21T23:01:18.090Z,7.80
2022-09-21T23:03:47.300Z,7.80
2022-09-21T23:06:16.816Z,7.80
2022-09-21T23:08:43.810Z,7.80
2022-09-21T23:11:14.526Z,7.70
2022-09-21T23:13:42.171Z,7.80
2022-09-21T23:16:11.940Z,7.70
2022-09-21T23:18:40.098Z,7.80
2022-09-21T23:21:18.815Z,7.80
2022-09-21T23:23:46.103Z,7.70
2022-09-21T23:26:18.826Z,7.70
2022-09-21T23:28:52.076Z,7.60
2022-09-21T23:31:19.331Z,7.60
2022-09-21T23:33:51.506Z,7.60
2022-09-21T23:36:22.469Z,7.60
2022-09-21T23:38:49.993Z,7.50
2022-09-21T23:41:19.831Z,7.50
2022-09-21T23:43:47.219Z,7.50
2022-09-21T23:46:18.066Z,7.50
2022-09-21T23:48:44.995Z,7.40
2022-09-21T23:51:12.499Z,7.50
2022-09-21T23:53:40.074Z,7.40
2022-09-21T23:56:07.985Z,7.50
2022-09-21T23:58:35.141Z,7.40
